Airfield :







YOU CAN JOIN US ON...

 
LOGIN :

Register | Disclaimer

   EN    FR    IT 

 









Legend :    VFR   Marginal VFR   IFR   Intensive IFR   Very Intensive IFR
Visi :
Ceiling :
>= 8 km
>= 3000ft
5 to 8 km
1000 to 3000 ft
1500m to 5 km
500 to 1000 ft
800 to 1500m
200 to 500 ft
< 800m
< 200 ft
Symbols :   Thunderstorms  Fog  Heavy snow  Heavy precipitations  Wind > 20 kt







- Airport Elevation : 39 ft
- IATA code : YNA


CYNA - Natashquan

CURRENT METAR :
  • 191400Z AUTO 25008KT 9SM BKN170 19/10 A2976 RMK SLP079 DENSITY ALT 600FT

EXPIRED METARs :
  • 191300Z AUTO 24006KT 9SM BKN170 BKN190 19/11 A2977 RMK SLP082 DENSITY ALT 600FT
  • 191200Z AUTO 35004KT 320V030 9SM BKN180 20/11 A2977 RMK SLP082 DENSITY ALT 700FT

TAF TAF CYNA
Valid from the 19 at 14:00 until the 20 at 02:00 UTC


191339Z 1914/2002 VRB03KT P6SM BKN180
BECMG 1914/1916 19010KT
FM200000 21010KT P6SM BKN140 RMK FCST BASED ON AUTO OBS. NXT FCST BY 192000Z
CZUL FIR / North America



MET'MAP, your aeronautical weather chart ! - Copyright ORBIFLY December 2007 - Disclaimer

ORBIFLY MET'MAP TEAM :

Programming & Development : Alexandra Zaïnal
Concept & Development : Baudouin d'Aumeries
Co-Development & Prog : Marc-Olivier Méhu
Technical & hardware support : Manuel Goepfert

Contact : metmap@orbifly.com




SOURCES & CREDITS :

   NOAA